Time;durP1;ratioP1;P1;durP2;ratioP2;P2;SDS_P1;SDS_P2;PMS_P1;PMS_P2;Temp;Humidity;BMP_temperature;BMP_pressure;BME280_temperature;BME280_humidity;BME280_pressure;Samples;Min_cycle;Max_cycle;Signal;HPM_P1;HPM_P2
2023/02/05 00:01:42;;;;;;;;;;;;;;;25.81;38.27;95924.78;4952732;28;8952;-63
2023/02/05 00:04:09;;;;;;;;;;;;;;;25.80;37.94;95918.50;4956555;28;9091;-63
2023/02/05 00:06:38;;;;;;;;;;;;;;;25.81;38.41;95913.75;4975619;28;7470;-63
2023/02/05 00:09:16;;;;;;;;;;;;;;;25.80;38.19;95909.47;4967912;28;8798;-63
2023/02/05 00:11:43;;;;;;;;;;;;;;;25.80;38.48;95907.47;4984485;28;7208;-63
2023/02/05 00:14:11;;;;;;;;;;;;;;;25.82;37.92;95923.53;4965529;28;7168;-63
2023/02/05 00:16:38;;;;;;;;;;;;;;;25.82;37.87;95909.75;4982100;28;6988;-63
2023/02/05 00:19:04;;;;;;;;;;;;;;;25.82;38.49;95905.00;4967301;28;9018;-63
2023/02/05 00:21:32;;;;;;;;;;;;;;;25.81;38.21;95917.28;4977991;28;9352;-63
2023/02/05 00:23:58;;;;;;;;;;;;;;;25.83;37.83;95912.06;5004644;28;9677;-64
2023/02/05 00:26:29;;;;;;;;;;;;;;;25.82;38.10;95913.28;5002645;28;8772;-63
2023/02/05 00:28:55;;;;;;;;;;;;;;;25.82;38.06;95913.28;5008435;28;6996;-64
2023/02/05 00:31:22;;;;;;;;;;;;;;;25.83;38.62;95908.53;5023196;28;8453;-63
2023/02/05 00:33:50;;;;;;;;;;;;;;;25.84;38.07;95901.75;5029728;28;7035;-64
2023/02/05 00:36:18;;;;;;;;;;;;;;;25.87;37.58;95901.59;5039488;28;8490;-63
2023/02/05 00:38:46;;;;;;;;;;;;;;;25.87;38.14;95896.06;5020663;28;7057;-63
2023/02/05 00:41:14;;;;;;;;;;;;;;;25.86;38.01;95889.03;5032731;28;7345;-63
2023/02/05 00:43:41;;;;;;;;;;;;;;;25.88;37.81;95896.84;5004597;28;7289;-63
2023/02/05 00:46:12;;;;;;;;;;;;;;;25.88;37.77;95885.81;5006841;28;9128;-63
2023/02/05 00:48:39;;;;;;;;;;;;;;;25.86;38.06;95883.53;5007413;28;8975;-63
2023/02/05 00:51:08;;;;;;;;;;;;;;;25.87;38.24;95890.56;5007959;28;7110;-63
2023/02/05 00:53:36;;;;;;;;;;;;;;;25.88;38.62;95902.34;5009674;28;10086;-63
2023/02/05 00:56:24;;;;;;;;;;;;;;;25.88;38.03;95903.09;5009963;28;7128;-63
2023/02/05 00:59:03;;;;;;;;;;;;;;;25.88;38.33;95908.59;5006972;28;7875;-63
2023/02/05 01:01:34;;;;;;;;;;;;;;;25.86;38.60;95911.09;5017322;28;7280;-64
2023/02/05 01:04:13;;;;;;;;;;;;;;;25.88;38.06;95910.63;5011360;28;9092;-63
2023/02/05 01:06:40;;;;;;;;;;;;;;;25.88;38.32;95916.13;5012636;28;9425;-63
2023/02/05 01:09:21;;;;;;;;;;;;;;;25.91;37.93;95906.91;5007962;28;7040;-63
2023/02/05 01:12:02;;;;;;;;;;;;;;;25.90;37.78;95908.16;5013123;28;7048;-64
2023/02/05 01:15:02;;;;;;;;;;;;;;;25.89;38.40;95904.63;5011923;28;9074;-64
2023/02/05 01:17:31;;;;;;;;;;;;;;;25.86;37.64;95905.56;4948775;28;8487;-63
2023/02/05 01:20:00;;;;;;;;;;;;;;;25.88;37.89;95913.38;4944622;28;7021;-65
2023/02/05 01:22:26;;;;;;;;;;;;;;;25.87;38.21;95907.09;4950006;28;7115;-65
2023/02/05 01:24:52;;;;;;;;;;;;;;;25.90;37.69;95911.66;4930327;29;7328;-65
2023/02/05 01:27:21;;;;;;;;;;;;;;;25.87;37.85;95896.06;4923825;28;8812;-65
2023/02/05 01:29:47;;;;;;;;;;;;;;;25.88;38.27;95900.34;4932602;28;7138;-65
2023/02/05 01:32:16;;;;;;;;;;;;;;;25.85;37.57;95904.06;4946374;28;7033;-65
2023/02/05 01:34:43;;;;;;;;;;;;;;;25.88;38.35;95902.34;4943585;28;9341;-65
2023/02/05 01:37:40;;;;;;;;;;;;;;;25.86;37.82;95913.84;4947694;28;7123;-65
2023/02/05 01:40:22;;;;;;;;;;;;;;;25.87;38.56;95917.38;4882122;29;7199;-64
2023/02/05 01:42:49;;;;;;;;;;;;;;;25.85;37.88;95912.34;4863738;29;7274;-65
2023/02/05 01:46:15;;;;;;;;;;;;;;;25.82;38.04;95899.50;4882977;29;9452;-65
2023/02/05 01:48:58;;;;;;;;;;;;;;;25.82;38.65;95909.75;4843268;29;9641;-65
2023/02/05 01:51:37;;;;;;;;;;;;;;;25.82;38.47;95910.53;4817898;29;7416;-65
2023/02/05 01:54:08;;;;;;;;;;;;;;;25.85;38.14;95908.81;4871113;29;9071;-65
2023/02/05 01:56:43;;;;;;;;;;;;;;;25.87;38.42;95904.34;4878406;29;7179;-64
2023/02/05 01:59:24;;;;;;;;;;;;;;;25.88;38.31;95902.34;4871293;29;7306;-65
2023/02/05 02:01:50;;;;;;;;;;;;;;;25.88;37.99;95897.59;4879974;29;9012;-65
2023/02/05 02:04:41;;;;;;;;;;;;;;;25.88;37.88;95896.84;4887480;29;9093;-65
2023/02/05 02:07:15;;;;;;;;;;;;;;;25.89;38.21;95890.84;4862772;29;9084;-65
2023/02/05 02:09:46;;;;;;;;;;;;;;;25.88;38.44;95892.06;4890577;29;9340;-65
2023/02/05 02:12:20;;;;;;;;;;;;;;;25.88;38.17;95891.34;4886833;29;6868;-64
2023/02/05 02:14:55;;;;;;;;;;;;;;;25.84;37.77;95893.50;4892917;29;7045;-65
2023/02/05 02:17:26;;;;;;;;;;;;;;;25.83;38.01;95876.22;4903722;29;8742;-65
2023/02/05 02:20:02;;;;;;;;;;;;;;;25.82;37.69;95877.44;4930691;29;7444;-65
2023/02/05 02:22:47;;;;;;;;;;;;;;;25.82;38.29;95877.44;4971236;28;7263;-64
2023/02/05 02:25:30;;;;;;;;;;;;;;;25.83;37.79;95873.47;5005728;28;9008;-65
2023/02/05 02:28:19;;;;;;;;;;;;;;;25.83;37.63;95878.22;5007893;28;7114;-64
2023/02/05 02:31:17;;;;;;;;;;;;;;;25.85;37.63;95865.47;4994479;28;7035;-65
2023/02/05 02:33:47;;;;;;;;;;;;;;;25.87;37.64;95862.22;5006994;28;9248;-65
2023/02/05 02:36:23;;;;;;;;;;;;;;;25.86;37.61;95861.47;5005967;28;7131;-65
2023/02/05 02:39:01;;;;;;;;;;;;;;;25.87;37.72;95860.25;5008375;28;7005;-65
2023/02/05 02:41:29;;;;;;;;;;;;;;;25.87;38.30;95860.25;5008251;28;9013;-65
2023/02/05 02:44:08;;;;;;;;;;;;;;;25.85;38.28;95859.97;5021983;28;7339;-65
2023/02/05 02:46:45;;;;;;;;;;;;;;;25.87;38.12;95857.50;5012775;28;9634;-64
2023/02/05 02:49:17;;;;;;;;;;;;;;;25.85;38.25;95851.69;5004661;28;9673;-65
2023/02/05 02:51:51;;;;;;;;;;;;;;;25.81;37.79;95853.88;5003517;28;7294;-65
2023/02/05 02:54:23;;;;;;;;;;;;;;;25.83;38.09;95848.66;5020327;28;9022;-65
2023/02/05 02:56:52;;;;;;;;;;;;;;;25.81;38.04;95842.09;5010984;28;7225;-65
2023/02/05 02:59:31;;;;;;;;;;;;;;;25.82;37.95;95838.84;5022945;28;8946;-65
2023/02/05 03:02:03;;;;;;;;;;;;;;;25.85;38.32;95843.44;5017076;28;7010;-65
2023/02/05 03:04:33;;;;;;;;;;;;;;;25.82;37.68;95838.84;5018823;28;7105;-65
2023/02/05 03:07:12;;;;;;;;;;;;;;;25.78;38.87;95843.81;5003263;28;8741;-65
2023/02/05 03:09:46;;;;;;;;;;;;;;;25.81;37.85;95847.63;5006612;28;7340;-65
2023/02/05 03:12:15;;;;;;;;;;;;;;;25.80;38.00;95846.06;5012379;28;7263;-65
2023/02/05 03:14:43;;;;;;;;;;;;;;;25.79;38.40;95836.31;5005990;28;7121;-65
2023/02/05 03:17:17;;;;;;;;;;;;;;;25.78;37.96;95838.28;5006793;28;9224;-65
2023/02/05 03:19:45;;;;;;;;;;;;;;;25.79;37.71;95834.31;5005603;28;8094;-65
2023/02/05 03:22:14;;;;;;;;;;;;;;;25.82;38.47;95822.31;5021840;28;7608;-65
2023/02/05 03:24:41;;;;;;;;;;;;;;;25.81;37.84;95820.81;5015341;28;7302;-65
2023/02/05 03:27:07;;;;;;;;;;;;;;;25.80;38.68;95824.78;5005479;28;8974;-65
2023/02/05 03:29:43;;;;;;;;;;;;;;;25.80;38.84;95819.28;5007009;28;7376;-65
2023/02/05 03:32:42;;;;;;;;;;;;;;;25.79;37.81;95819.78;5003223;28;9442;-65
2023/02/05 03:35:19;;;;;;;;;;;;;;;25.79;37.86;95820.53;5004625;28;7273;-65
2023/02/05 03:37:52;;;;;;;;;;;;;;;25.75;37.73;95811.69;5010801;28;7545;-65
2023/02/05 03:40:30;;;;;;;;;;;;;;;25.78;38.11;95819.00;5003813;28;7284;-65
2023/02/05 03:43:11;;;;;;;;;;;;;;;25.78;38.81;95821.00;5006782;28;7035;-65
2023/02/05 03:45:48;;;;;;;;;;;;;;;25.77;38.22;95813.97;4997722;28;9058;-65
2023/02/05 03:48:32;;;;;;;;;;;;;;;25.79;38.56;95817.00;4999351;28;7271;-65
2023/02/05 03:51:13;;;;;;;;;;;;;;;25.77;38.88;95806.47;5017019;28;9299;-65
2023/02/05 03:54:00;;;;;;;;;;;;;;;25.76;37.92;95810.47;5006488;28;7189;-65
2023/02/05 03:57:05;;;;;;;;;;;;;;;25.78;38.41;95813.50;5005927;28;7041;-64
2023/02/05 03:59:34;;;;;;;;;;;;;;;25.78;38.58;95810.72;4948580;28;9306;-65
2023/02/05 04:02:03;;;;;;;;;;;;;;;25.79;38.91;95815.03;4946690;28;8711;-65
2023/02/05 04:04:33;;;;;;;;;;;;;;;25.76;38.67;95804.94;4930825;28;8918;-65
2023/02/05 04:07:01;;;;;;;;;;;;;;;25.76;38.58;95795.91;4942031;29;9060;-65
2023/02/05 04:09:29;;;;;;;;;;;;;;;25.77;38.77;95787.19;4928509;29;9441;-65
2023/02/05 04:11:58;;;;;;;;;;;;;;;25.80;38.46;95797.22;4948542;28;7048;-65
2023/02/05 04:14:28;;;;;;;;;;;;;;;25.79;38.50;95794.97;4946507;28;6923;-65
2023/02/05 04:16:58;;;;;;;;;;;;;;;25.79;38.80;95792.22;4934601;28;7276;-64
2023/02/05 04:19:29;;;;;;;;;;;;;;;25.78;38.53;95793.44;4950148;28;8715;-65
2023/02/05 04:21:56;;;;;;;;;;;;;;;25.77;38.36;95798.22;4937098;28;9262;-65
2023/02/05 04:24:25;;;;;;;;;;;;;;;25.77;38.10;95800.19;4949959;28;7336;-65
2023/02/05 04:26:55;;;;;;;;;;;;;;;25.77;38.54;95800.97;4953349;28;7235;-65
2023/02/05 04:29:21;;;;;;;;;;;;;;;25.78;38.35;95810.72;4953168;28;7212;-65
2023/02/05 04:31:48;;;;;;;;;;;;;;;25.80;37.86;95799.22;4946386;28;7195;-65
2023/02/05 04:34:16;;;;;;;;;;;;;;;25.78;37.95;95805.22;4949967;28;7097;-65
2023/02/05 04:36:45;;;;;;;;;;;;;;;25.79;38.45;95803.22;4992723;28;7224;-65
2023/02/05 04:39:12;;;;;;;;;;;;;;;25.79;38.17;95806.00;5007588;28;7035;-65
2023/02/05 04:41:42;;;;;;;;;;;;;;;25.79;38.28;95797.72;5005380;28;7508;-65
2023/02/05 04:44:08;;;;;;;;;;;;;;;25.78;38.91;95799.72;5006709;28;8731;-65
2023/02/05 04:46:38;;;;;;;;;;;;;;;25.79;38.65;95789.44;5018475;28;7313;-65
2023/02/05 04:49:05;;;;;;;;;;;;;;;25.78;38.36;95780.41;5008858;28;7119;-65
2023/02/05 04:51:35;;;;;;;;;;;;;;;25.79;38.34;95779.19;5006237;28;7026;-65
2023/02/05 04:54:08;;;;;;;;;;;;;;;25.78;38.60;95774.91;5006302;28;7218;-65
2023/02/05 04:56:41;;;;;;;;;;;;;;;25.78;38.28;95774.91;5000167;28;7340;-64
2023/02/05 04:59:23;;;;;;;;;;;;;;;25.79;38.51;95792.22;5000393;28;7048;-64
2023/02/05 05:01:51;;;;;;;;;;;;;;;25.76;38.10;95787.63;5022279;28;7088;-64
2023/02/05 05:04:18;;;;;;;;;;;;;;;25.79;38.00;95797.72;5020328;28;9008;-64
2023/02/05 05:06:57;;;;;;;;;;;;;;;25.78;38.79;95805.22;5017849;28;9134;-64
2023/02/05 05:09:29;;;;;;;;;;;;;;;25.77;38.69;95809.22;5012549;28;7076;-65
2023/02/05 05:12:16;;;;;;;;;;;;;;;25.78;38.89;95799.72;5011034;28;7238;-65
2023/02/05 05:14:43;;;;;;;;;;;;;;;25.78;38.76;95788.69;5010633;28;9188;-65
2023/02/05 05:17:13;;;;;;;;;;;;;;;25.79;38.40;95783.94;5003113;28;7263;-65
2023/02/05 05:19:40;;;;;;;;;;;;;;;25.79;38.44;95781.19;5007065;28;9024;-64
2023/02/05 05:22:06;;;;;;;;;;;;;;;25.77;38.02;95781.66;5007234;28;8718;-64
2023/02/05 05:24:32;;;;;;;;;;;;;;;25.79;38.33;95773.69;5004721;28;9305;-64
2023/02/05 05:26:59;;;;;;;;;;;;;;;25.78;38.50;95783.19;5001301;28;7337;-64
2023/02/05 05:29:27;;;;;;;;;;;;;;;25.77;38.03;95791.94;5004976;28;7038;-64
2023/02/05 05:31:53;;;;;;;;;;;;;;;25.77;38.70;95798.22;5012563;28;9047;-64
2023/02/05 05:34:21;;;;;;;;;;;;;;;25.79;38.08;95806.00;5004638;28;7679;-64
2023/02/05 05:36:53;;;;;;;;;;;;;;;25.77;38.01;95808.47;5007339;28;7063;-64
2023/02/05 05:45:35;;;;;;;;;;;;;;;25.78;38.59;95807.22;4919634;29;7594;-64
2023/02/05 05:48:10;;;;;;;;;;;;;;;25.77;38.66;95809.22;4925935;29;9125;-64
2023/02/05 05:50:51;;;;;;;;;;;;;;;25.78;37.96;95805.22;4891844;29;8674;-64
2023/02/05 05:53:31;;;;;;;;;;;;;;;25.79;38.81;95806.75;4913367;29;6991;-64
2023/02/05 05:56:02;;;;;;;;;;;;;;;25.80;38.08;95804.72;4912749;29;9102;-64
2023/02/05 05:58:30;;;;;;;;;;;;;;;25.79;38.17;95812.25;4927730;29;9110;-64
2023/02/05 06:01:06;;;;;;;;;;;;;;;25.79;38.14;95817.00;4914936;29;9035;-64
2023/02/05 06:03:32;;;;;;;;;;;;;;;25.78;38.51;95823.75;4922653;29;7220;-64
2023/02/05 06:06:24;;;;;;;;;;;;;;;25.79;38.99;95828.03;4914128;29;9064;-64
2023/02/05 06:09:06;;;;;;;;;;;;;;;25.77;38.22;95817.50;4917320;29;8691;-65
2023/02/05 06:11:32;;;;;;;;;;;;;;;25.80;38.66;95818.50;4921898;29;9030;-65
2023/02/05 06:13:58;;;;;;;;;;;;;;;25.77;38.47;95809.22;4905795;29;7936;-64
2023/02/05 06:16:27;;;;;;;;;;;;;;;25.81;38.73;95823.56;4963052;28;9150;-64
2023/02/05 06:18:54;;;;;;;;;;;;;;;25.81;38.95;95833.81;5023974;28;7043;-64
2023/02/05 06:21:20;;;;;;;;;;;;;;;25.81;38.17;95822.81;5007274;28;8654;-64
2023/02/05 06:23:48;;;;;;;;;;;;;;;25.81;39.11;95837.34;5004968;28;9475;-64
2023/02/05 06:26:40;;;;;;;;;;;;;;;25.81;39.11;95840.09;5017092;28;7086;-64
2023/02/05 06:29:06;;;;;;;;;;;;;;;25.81;38.56;95837.34;4931743;28;8852;-64
2023/02/05 06:31:51;;;;;;;;;;;;;;;25.82;38.15;95847.13;4933544;29;8235;-64
2023/02/05 06:34:18;;;;;;;;;;;;;;;25.82;38.68;95854.63;4915078;29;7051;-64
2023/02/05 06:36:59;;;;;;;;;;;;;;;25.83;38.31;95856.16;4934884;28;7585;-64
2023/02/05 06:39:50;;;;;;;;;;;;;;;25.85;38.17;95864.72;4915896;29;9531;-64
2023/02/05 06:42:17;;;;;;;;;;;;;;;25.86;38.55;95857.97;4932631;28;7044;-64
2023/02/05 06:44:44;;;;;;;;;;;;;;;25.85;39.03;95862.72;4933646;28;9102;-64
2023/02/05 06:47:29;;;;;;;;;;;;;;;25.83;38.42;95865.19;4931316;29;7164;-63
2023/02/05 06:50:01;;;;;;;;;;;;;;;25.84;38.82;95869.47;4926070;29;6860;-64
2023/02/05 06:52:27;;;;;;;;;;;;;;;25.83;38.37;95875.47;4914396;29;8994;-64
2023/02/05 06:54:55;;;;;;;;;;;;;;;25.80;38.38;95874.41;4916145;28;7295;-64
2023/02/05 06:57:21;;;;;;;;;;;;;;;25.83;39.26;95870.72;4930314;28;9917;-64
2023/02/05 06:59:54;;;;;;;;;;;;;;;25.83;38.11;95875.47;4914440;29;7014;-64
2023/02/05 07:02:22;;;;;;;;;;;;;;;25.88;38.53;95885.81;4929424;28;7251;-64
2023/02/05 07:05:24;;;;;;;;;;;;;;;25.89;36.76;95890.84;4931109;28;8599;-65
2023/02/05 07:08:00;;;;;;;;;;;;;;;25.85;37.65;95890.28;4889993;29;7038;-64
2023/02/05 07:10:40;;;;;;;;;;;;;;;25.90;38.26;95884.06;4887114;29;8857;-65
2023/02/05 07:13:06;;;;;;;;;;;;;;;25.90;38.30;95891.63;4892330;29;7341;-65
2023/02/05 07:15:35;;;;;;;;;;;;;;;25.89;37.89;95898.34;4894770;29;9041;-65
2023/02/05 07:18:03;;;;;;;;;;;;;;;25.85;38.23;95909.56;4906741;29;7719;-65
2023/02/05 07:20:30;;;;;;;;;;;;;;;25.85;38.17;95904.06;4906836;29;9529;-65
2023/02/05 07:22:57;;;;;;;;;;;;;;;25.87;38.27;95896.06;4890681;29;8993;-65
2023/02/05 07:25:37;;;;;;;;;;;;;;;25.88;37.67;95899.59;4907198;29;7038;-65
2023/02/05 07:28:07;;;;;;;;;;;;;;;25.86;38.17;95882.78;4907833;29;7258;-65
2023/02/05 07:30:34;;;;;;;;;;;;;;;25.88;38.59;95891.34;4889290;29;7232;-65
2023/02/05 07:33:04;;;;;;;;;;;;;;;25.87;38.61;95881.53;4895515;29;7010;-65
2023/02/05 07:35:35;;;;;;;;;;;;;;;25.86;38.55;95888.28;4893753;29;9688;-65
2023/02/05 07:38:05;;;;;;;;;;;;;;;25.87;37.99;95893.31;4888445;29;8720;-65
2023/02/05 07:40:32;;;;;;;;;;;;;;;25.87;39.09;95898.84;4909477;29;8766;-65
2023/02/05 07:43:06;;;;;;;;;;;;;;;25.88;38.56;95897.59;4990492;28;7113;-65
2023/02/05 07:45:38;;;;;;;;;;;;;;;25.89;38.87;95910.16;5017667;28;9164;-65
2023/02/05 07:48:05;;;;;;;;;;;;;;;25.89;39.33;95912.91;5004304;28;9227;-65
2023/02/05 07:50:48;;;;;;;;;;;;;;;25.87;39.01;95912.63;5018169;28;8712;-65
2023/02/05 07:53:21;;;;;;;;;;;;;;;25.91;38.77;95924.22;5007664;28;7039;-64
2023/02/05 07:55:49;;;;;;;;;;;;;;;25.89;39.15;95915.66;5008658;28;8710;-64
2023/02/05 07:58:17;;;;;;;;;;;;;;;25.89;39.32;95920.41;5025349;28;9606;-64
2023/02/05 08:00:44;;;;;;;;;;;;;;;25.87;39.04;95929.16;5008537;28;9122;-64
2023/02/05 08:03:11;;;;;;;;;;;;;;;25.88;38.88;95935.44;5003641;28;7275;-64
2023/02/05 08:05:38;;;;;;;;;;;;;;;25.89;39.11;95937.72;5000837;28;8981;-65
2023/02/05 08:08:05;;;;;;;;;;;;;;;25.87;38.85;95929.16;5011407;28;7188;-64
2023/02/05 08:10:34;;;;;;;;;;;;;;;25.87;39.63;95929.16;5008953;28;9424;-64
2023/02/05 08:13:00;;;;;;;;;;;;;;;25.89;39.23;95932.19;5010932;28;9248;-65
2023/02/05 08:15:28;;;;;;;;;;;;;;;25.89;39.05;95936.94;5008037;28;9080;-65
2023/02/05 08:17:57;;;;;;;;;;;;;;;25.94;39.18;95939.81;5025643;28;9458;-64
2023/02/05 08:20:23;;;;;;;;;;;;;;;25.97;39.65;95932.56;5017829;28;7163;-63
2023/02/05 08:22:51;;;;;;;;;;;;;;;26.02;39.24;95929.91;5002805;28;9024;-63
2023/02/05 08:25:17;;;;;;;;;;;;;;;26.04;39.32;95924.69;5007729;28;7159;-64
2023/02/05 08:27:44;;;;;;;;;;;;;;;26.08;38.58;95933.53;5009875;28;7173;-65
2023/02/05 08:30:13;;;;;;;;;;;;;;;26.14;38.94;95936.41;5003819;28;7098;-65
2023/02/05 08:32:40;;;;;;;;;;;;;;;26.15;37.80;95932.38;5010751;28;7255;-65
2023/02/05 08:35:12;;;;;;;;;;;;;;;26.13;37.86;95937.63;5024921;28;8908;-63
2023/02/05 08:37:38;;;;;;;;;;;;;;;26.16;38.08;95940.19;5008098;28;8613;-64
2023/02/05 08:40:05;;;;;;;;;;;;;;;26.15;37.66;95941.44;5008360;28;7335;-64
2023/02/05 08:42:34;;;;;;;;;;;;;;;26.12;38.32;95947.88;5002553;28;9439;-63
2023/02/05 08:45:10;;;;;;;;;;;;;;;26.07;38.19;95954.06;5007802;28;8706;-64
2023/02/05 08:47:37;;;;;;;;;;;;;;;26.08;37.92;95950.09;5019130;28;9340;-65
2023/02/05 08:50:04;;;;;;;;;;;;;;;26.11;37.94;95949.13;5005260;28;7126;-65
2023/02/05 08:52:50;;;;;;;;;;;;;;;26.09;38.41;95943.34;5003177;28;7034;-65
2023/02/05 08:55:27;;;;;;;;;;;;;;;26.08;37.76;95941.81;5009509;28;9029;-65
2023/02/05 08:57:55;;;;;;;;;;;;;;;26.05;38.44;95940.00;5012276;28;7041;-65
2023/02/05 09:00:28;;;;;;;;;;;;;;;26.03;38.50;95936.94;5013695;28;7228;-65
2023/02/05 09:02:56;;;;;;;;;;;;;;;26.04;38.57;95943.22;5010941;28;7179;-65
2023/02/05 09:05:22;;;;;;;;;;;;;;;26.01;37.71;95936.66;5012057;28;6991;-65
2023/02/05 09:07:48;;;;;;;;;;;;;;;26.01;38.33;95927.63;5007998;28;9130;-65
2023/02/05 09:10:45;;;;;;;;;;;;;;;26.03;37.88;95928.66;5020557;28;8656;-65
2023/02/05 09:13:19;;;;;;;;;;;;;;;26.02;38.27;95932.66;4973976;28;8984;-65
2023/02/05 09:15:47;;;;;;;;;;;;;;;26.04;37.74;95921.16;4958502;28;7237;-66
2023/02/05 09:18:23;;;;;;;;;;;;;;;26.04;38.07;95910.88;4976403;28;7221;-66
2023/02/05 09:20:50;;;;;;;;;;;;;;;26.00;38.23;95904.81;4973869;28;9013;-66
2023/02/05 09:23:17;;;;;;;;;;;;;;;26.01;38.55;95900.81;4972448;28;9084;-66
2023/02/05 09:25:53;;;;;;;;;;;;;;;25.98;37.93;95901.78;4954433;28;7069;-66
2023/02/05 09:28:38;;;;;;;;;;;;;;;25.96;39.14;95893.22;4961610;28;7453;-66
2023/02/05 09:31:14;;;;;;;;;;;;;;;25.97;38.89;95893.97;4961129;28;7029;-66
2023/02/05 09:33:40;;;;;;;;;;;;;;;26.00;38.79;95887.50;4976670;28;8629;-66
2023/02/05 09:36:34;;;;;;;;;;;;;;;26.00;38.86;95884.75;4959595;28;7291;-66
2023/02/05 09:39:03;;;;;;;;;;;;;;;26.00;38.39;95871.72;4893956;29;9412;-66
2023/02/05 09:41:41;;;;;;;;;;;;;;;25.99;39.05;95869.47;4898509;29;8226;-66
2023/02/05 09:44:32;;;;;;;;;;;;;;;25.99;38.67;95855.66;4899882;29;7322;-66
2023/02/05 09:47:44;;;;;;;;;;;;;;;25.98;39.50;95840.34;4893479;29;8679;-65
2023/02/05 09:50:28;;;;;;;;;;;;;;;25.97;39.69;95828.56;4879947;29;7040;-64
2023/02/05 09:53:10;;;;;;;;;;;;;;;25.95;38.89;95811.75;4918159;29;7587;-65
2023/02/05 09:56:08;;;;;;;;;;;;;;;25.96;39.38;95805.00;4921903;29;7308;-65
2023/02/05 09:58:51;;;;;;;;;;;;;;;25.99;39.03;95809.53;4892490;29;7384;-65
2023/02/05 10:01:30;;;;;;;;;;;;;;;25.99;39.15;95806.03;4887217;29;8791;-65
2023/02/05 10:04:02;;;;;;;;;;;;;;;26.01;39.64;95812.56;4890352;29;7738;-64
2023/02/05 10:06:55;;;;;;;;;;;;;;;26.05;39.66;95824.19;4892790;29;9143;-64
2023/02/05 10:09:56;;;;;;;;;;;;;;;26.07;38.68;95816.19;4875155;29;7047;-64
2023/02/05 10:16:03;;;;;;;;;;;;;;;26.06;38.75;95808.38;4905968;29;9171;-64
2023/02/05 10:22:00;;;;;;;;;;;;;;;25.97;39.18;95816.75;4907828;29;9070;-64
2023/02/05 10:24:59;;;;;;;;;;;;;;;25.97;40.13;95822.28;4888927;29;9034;-65
2023/02/05 10:27:50;;;;;;;;;;;;;;;25.93;39.95;95805.94;4958550;28;8951;-64
2023/02/05 10:30:57;;;;;;;;;;;;;;;25.92;40.87;95798.16;4985349;28;7764;-64
2023/02/05 10:33:35;;;;;;;;;;;;;;;25.91;40.07;95797.41;4928426;29;9002;-64
2023/02/05 10:36:20;;;;;;;;;;;;;;;25.90;40.90;95782.09;4928224;28;7456;-64
2023/02/05 10:38:51;;;;;;;;;;;;;;;25.91;40.67;95783.63;4934258;28;8915;-64
2023/02/05 10:41:47;;;;;;;;;;;;;;;25.91;41.09;95783.63;4929477;28;7282;-64
2023/02/05 10:44:35;;;;;;;;;;;;;;;25.91;41.06;95789.13;4946329;28;9318;-62
2023/02/05 10:47:30;;;;;;;;;;;;;;;25.90;40.95;95776.56;4928157;28;7185;-63
2023/02/05 10:50:21;;;;;;;;;;;;;;;25.95;40.33;95775.91;4942072;28;8914;-64
2023/02/05 10:52:51;;;;;;;;;;;;;;;25.97;40.99;95775.41;4928855;28;9016;-64
2023/02/05 10:55:17;;;;;;;;;;;;;;;25.97;40.29;95772.66;4929398;28;9788;-63
2023/02/05 10:57:43;;;;;;;;;;;;;;;26.01;40.73;95767.72;4944737;28;8959;-63
2023/02/05 11:00:22;;;;;;;;;;;;;;;26.02;40.40;95760.97;4933761;28;7269;-63
2023/02/05 11:03:16;;;;;;;;;;;;;;;26.02;40.46;95753.44;4932987;28;9390;-63
2023/02/05 11:05:46;;;;;;;;;;;;;;;26.05;40.29;95748.97;4932606;28;7225;-63
2023/02/05 11:08:34;;;;;;;;;;;;;;;26.06;40.06;95742.19;4956100;28;7453;-63
2023/02/05 11:11:20;;;;;;;;;;;;;;;26.06;40.06;95742.19;5007092;28;7030;-64
2023/02/05 11:13:54;;;;;;;;;;;;;;;25.96;40.24;95747.09;5005283;28;7441;-65
2023/02/05 11:16:32;;;;;;;;;;;;;;;25.98;40.47;95752.91;5007095;28;7243;-64
2023/02/05 11:19:01;;;;;;;;;;;;;;;26.03;40.37;95748.69;5006457;28;7118;-64
2023/02/05 11:21:48;;;;;;;;;;;;;;;26.03;39.85;95745.94;4999085;28;7036;-64
2023/02/05 11:24:35;;;;;;;;;;;;;;;25.97;40.57;95750.59;5004108;28;9200;-65
2023/02/05 11:27:14;;;;;;;;;;;;;;;25.96;40.36;95746.34;5006443;28;9138;-65
2023/02/05 11:29:40;;;;;;;;;;;;;;;25.96;41.04;95736.09;5002987;28;9367;-65
2023/02/05 11:32:19;;;;;;;;;;;;;;;25.98;41.68;95736.34;5006914;28;7605;-65
2023/02/05 11:34:46;;;;;;;;;;;;;;;25.94;41.69;95730.28;5003164;28;7844;-63
2023/02/05 11:37:17;;;;;;;;;;;;;;;25.98;41.99;95741.88;5007432;28;9552;-63
2023/02/05 11:39:55;;;;;;;;;;;;;;;26.02;42.29;95731.38;5002893;28;7281;-64
2023/02/05 11:42:24;;;;;;;;;;;;;;;26.02;41.80;95734.16;5012260;28;7000;-64
2023/02/05 11:44:57;;;;;;;;;;;;;;;26.05;42.69;95729.69;5004663;28;7461;-64
2023/02/05 11:47:32;;;;;;;;;;;;;;;26.02;41.69;95736.91;5003181;28;9046;-64
2023/02/05 11:50:01;;;;;;;;;;;;;;;26.03;42.47;95727.38;4999694;28;7124;-63
2023/02/05 11:52:40;;;;;;;;;;;;;;;26.03;42.48;95724.63;4996310;28;8911;-64
2023/02/05 11:55:25;;;;;;;;;;;;;;;26.04;41.98;95712.38;5002373;28;9455;-64
2023/02/05 11:58:23;;;;;;;;;;;;;;;26.05;41.93;95713.13;5005350;28;7034;-64
2023/02/05 12:01:32;;;;;;;;;;;;;;;26.08;41.89;95726.72;5003657;28;7214;-64
2023/02/05 12:04:01;;;;;;;;;;;;;;;26.09;41.62;95720.00;5008879;28;9519;-64
2023/02/05 12:06:51;;;;;;;;;;;;;;;26.13;41.90;95708.75;5008870;28;8690;-64
2023/02/05 12:09:42;;;;;;;;;;;;;;;26.19;41.18;95703.31;5007515;28;8490;-64
2023/02/05 12:12:42;;;;;;;;;;;;;;;26.18;41.58;95705.31;5006435;28;7228;-64
2023/02/05 12:15:23;;;;;;;;;;;;;;;26.16;41.82;95707.78;5007714;28;7293;-64
2023/02/05 12:18:19;;;;;;;;;;;;;;;26.15;41.56;95712.53;5004450;28;7503;-64
2023/02/05 12:21:09;;;;;;;;;;;;;;;26.11;41.41;95700.97;5003540;28;9132;-63
2023/02/05 12:24:03;;;;;;;;;;;;;;;26.07;41.35;95700.38;5003839;28;9096;-63
2023/02/05 12:26:33;;;;;;;;;;;;;;;26.07;41.99;95705.91;5003347;28;7352;-63
2023/02/05 12:29:37;;;;;;;;;;;;;;;26.07;41.35;95697.63;5009223;28;7140;-64
2023/02/05 12:32:21;;;;;;;;;;;;;;;26.07;41.76;95697.63;5000467;28;7009;-63
2023/02/05 12:35:45;;;;;;;;;;;;;;;26.09;42.19;95691.66;5008491;28;8784;-63
2023/02/05 12:38:41;;;;;;;;;;;;;;;26.15;41.80;95704.25;4947221;28;7285;-63
2023/02/05 12:41:28;;;;;;;;;;;;;;;26.21;41.01;95706.34;4919989;28;9064;-63
2023/02/05 12:44:15;;;;;;;;;;;;;;;26.21;41.38;95698.81;4919244;29;7161;-63
2023/02/05 12:47:10;;;;;;;;;;;;;;;26.24;41.29;95699.84;4950307;28;7275;-63
2023/02/05 12:50:09;;;;;;;;;;;;;;;26.24;40.69;95680.53;4933037;28;7042;-63
2023/02/05 12:53:03;;;;;;;;;;;;;;;26.26;40.68;95691.84;4926380;28;9480;-63
2023/02/05 12:56:06;;;;;;;;;;;;;;;26.25;41.19;95691.09;4950451;28;9881;-63
2023/02/05 12:59:15;;;;;;;;;;;;;;;26.28;41.04;95692.09;4944484;28;9060;-63
2023/02/05 13:01:43;;;;;;;;;;;;;;;26.29;40.56;95686.13;4949074;28;8770;-63
2023/02/05 13:04:38;;;;;;;;;;;;;;;26.29;40.27;95683.38;4932525;29;9743;-63
2023/02/05 13:07:17;;;;;;;;;;;;;;;26.29;40.77;95679.84;4934863;28;7263;-63
2023/02/05 13:10:01;;;;;;;;;;;;;;;26.32;41.01;95687.91;4984331;28;7602;-63
2023/02/05 13:12:36;;;;;;;;;;;;;;;26.32;40.95;95687.91;5006095;28;7039;-64
2023/02/05 13:15:14;;;;;;;;;;;;;;;26.31;40.60;95680.13;5017495;28;7064;-65
2023/02/05 13:18:04;;;;;;;;;;;;;;;26.26;40.80;95684.31;5019356;28;9401;-64
2023/02/05 13:29:21;;;;;;;;;;;;;;;26.19;41.41;95672.97;5011127;28;8709;-64
2023/02/05 13:31:56;;;;;;;;;;;;;;;26.18;41.18;95672.22;5004931;28;7035;-64
2023/02/05 13:34:23;;;;;;;;;;;;;;;26.15;40.61;95668.41;5010223;28;9368;-64
2023/02/05 13:37:09;;;;;;;;;;;;;;;26.15;41.33;95662.13;5006374;28;7146;-64
2023/02/05 13:39:48;;;;;;;;;;;;;;;26.13;40.60;95653.59;5018584;28;9021;-64
2023/02/05 13:42:59;;;;;;;;;;;;;;;26.19;41.19;95653.66;5020461;28;7011;-64
2023/02/05 13:45:55;;;;;;;;;;;;;;;26.20;41.21;95652.41;4911295;29;9545;-63
2023/02/05 13:48:42;;;;;;;;;;;;;;;26.21;41.28;95638.13;4930487;29;9034;-64
2023/02/05 13:51:41;;;;;;;;;;;;;;;26.20;40.75;95624.84;4913233;29;7259;-63
2023/02/05 13:54:26;;;;;;;;;;;;;;;26.21;41.04;95618.09;4917743;29;7230;-64
2023/02/05 13:57:30;;;;;;;;;;;;;;;26.17;41.13;95610.78;4926147;29;8974;-64
2023/02/05 13:59:59;;;;;;;;;;;;;;;26.16;40.98;95609.25;4924984;29;7171;-64
2023/02/05 14:03:04;;;;;;;;;;;;;;;26.15;41.30;95604.22;4914029;29;7057;-65
2023/02/05 14:05:52;;;;;;;;;;;;;;;26.15;40.63;95612.50;4926918;29;7255;-64
2023/02/05 14:08:25;;;;;;;;;;;;;;;26.16;40.57;95611.28;4915661;29;7247;-64